BRE weather

Las Brechas Airport
Hermosillo, Sonora, Mexico

Public forecast

Using degrees Celsius for public forecast. Weather courtesy of forecast.io.

Closest aviation weather report (METAR) to Las Brechas Airport

Report is more than 6 hours old.

Closest report is General Ignacio P. Garcia International Airport, 16.9 nm (31.2 km) SW. Retrieved 2020/05/30 00:40 UTC (12 hours ago):

MMHO 300040Z 25008KT 10SM SKC 38/12 A2979 RMK DSNT CB N HZY

Closest aviation forecast (TAF) to Las Brechas Airport

Closest forecast is General Ignacio P. Garcia International Airport, 16.9 nm (31.2 km) SW. Retrieved 2020/05/30 06:42 UTC (6 hours ago):

TAF MMHO 300436Z 3006/3106 24005KT P6SM SCT020 FM301800 24010KT P6SM SKC FM310100 24005KT P6SM SCT250